Addison, AL (35540)

5:17 PM CDT on August 31, 2015 (GMT -0500)
Upshaw Community | | Change Station
CLOSE
Current Station
Personal Weather Station
Location: Addison, AL
Elevation: 869 ft
Nearby Weather Stations

Elev 869 ft 34.26 °N, 87.16 °W | Updated 4 minutes ago

Partly Cloudy
Partly Cloudy
84.2 °F
Feels Like 97 °F
N
1.7
Wind Variable Wind from NNE

Today
High -- | Low -- °F
--% Chance of Precip.
Yesterday
High -- | Low -- °F
Precip. -- in
6:21 AM 7:16 PM
Waning Gibbous, 93% visible
Pressure 30.15 in
Visibility 10.0 miles
Clouds Few 3700 ft
Heat Index 97 °F
Dew Point 80 °F
Humidity 86%
Rainfall 0.00 in
Snow Depth Not available.
UV 3 out of 12
Pollen 8.70 out of 12
Air Quality Not available.
Flu Activity Not available.
METAR K1M4 312156Z AUTO 00000KT 10SM FEW037 29/19 A3011 RMK AO2 T02880194 SLP208
Pressure 30.15 in
Visibility 10.0 miles
Clouds Few 3700 ft
Heat Index 97 °F
Dew Point 80 °F
Humidity 86%
Rainfall 0.00 in
Snow Depth Not available.
UV 3 out of 12
Pollen 8.70 out of 12
Air Quality Not available.
Flu Activity Not available.
METAR K1M4 312156Z AUTO 00000KT 10SM FEW037 29/19 A3011 RMK AO2 T02880194 SLP208

10-Day Weather Forecast

×

Almanac

Astronomy

Aug. 31, 2015 Rise Set
Actual Time
Civil Twilight
Nautical Twilight
Astronomical Twilight
Moon
Length of Visible Light
Length of Day
Tomorrow will be .
, % of the Moon is Illuminated

Today's Extremes

State Highs State Lows

Community

WunderPhotos

Upload Photos

1,851,389 photos uploaded!

WunderBlogs® & News

Nearby

Air Quality

  Air Quality AQ Index Pollutant
Not available.

Snow Depth

Station Depth Elevation

Earthquake Activity

City Distance Mag. Time & Date
Minimum magnitude displayed is 2.5.

Coastal Water Temperatures

Place Temperature

Stations

Nearby Weather Stations

Station Location Temp. Windchill Dew Point Humidity Wind Precip. Elev Updated Type